Date,TemperatureHighF,TemperatureAvgF,TemperatureLowF,DewpointHighF,DewpointAvgF,DewpointLowF,HumidityHigh,HumidityAvg,HumidityLow,PressureMaxIn,PressureMinIn,WindSpeedMaxMPH,WindSpeedAvgMPH,GustSpeedMaxMPH,PrecipitationSumIn
2013-2-1,20,15,12,15,12,9,93,85,69,29.98,29.72,0,0,0,0.00
2013-2-2,25,16,8,17,11,-1,96,79,58,29.93,29.78,0,0,0,0.00
2013-2-3,22,16,8,18,9,-1,88,75,65,29.81,29.66,4,0,4,0.00
2013-2-4,29,20,13,20,14,5,93,79,65,29.78,29.66,6,1,6,0.00
2013-2-5,30,20,6,28,15,-1,95,81,70,29.78,29.54,11,3,13,0.00
2013-2-6,42,28,13,25,19,9,91,72,47,30.01,29.78,10,1,10,0.00
2013-2-7,33,31,28,33,27,21,98,85,71,29.98,29.66,7,1,7,0.00
2013-2-8,41,30,19,31,23,9,98,77,48,30.16,29.66,12,4,13,0.00
2013-2-9,41,22,6,23,12,-3,87,63,47,30.19,29.98,8,1,8,0.20
2013-2-10,40,30,19,40,26,14,98,85,73,29.98,29.34,13,2,13,0.16
2013-2-11,43,35,30,42,33,24,98,91,78,29.69,29.28,25,8,25,0.00
2013-2-12,30,29,27,26,24,21,86,81,77,29.81,29.69,12,4,12,0.00
2013-2-13,43,31,20,31,26,18,97,82,59,29.72,29.48,9,2,9,0.00
2013-2-14,38,32,25,37,31,23,98,94,84,29.69,29.39,15,4,232,0.08
2013-2-15,30,25,21,28,19,13,96,77,57,29.93,29.69,11,3,11,0.00
2013-2-16,30,20,11,19,14,5,92,76,51,29.90,29.81,10,2,10,0.00
2013-2-17,34,16,1,14,5,-5,83,64,41,29.98,29.90,8,1,8,0.00
2013-2-18,45,34,18,42,24,8,98,67,48,29.90,29.22,15,3,15,0.12
2013-2-19,42,26,17,42,23,13,98,90,80,29.78,29.16,18,7,18,0.04
2013-2-20,24,20,16,16,13,10,86,74,59,30.07,29.78,14,5,14,0.00
2013-2-21,21,21,21,15,14,14,75,74,73,30.07,30.07,10,4,10,0.00
2013-2-22,33,32,31,33,30,27,98,94,87,29.63,29.60,12,3,12,0.00
2013-2-23,33,30,26,30,25,20,92,82,60,29.69,29.60,14,5,14,0.00
2013-2-24,46,33,26,29,24,18,89,72,43,29.93,29.69,10,2,10,0.16
2013-2-25,49,30,15,32,22,11,97,72,49,29.98,29.87,6,1,6,0.00
2013-2-26,35,32,28,33,26,0,98,79,60,29.90,29.31,13,3,13,0.00
2013-2-27,38,35,33,38,34,33,98,98,95,29.42,29.28,7,1,7,0.47
2013-2-28,37,34,31,36,32,26,98,91,82,29.81,29.42,11,4,12,0.00